Time;durP1;ratioP1;P1;durP2;ratioP2;P2;SDS_P1;SDS_P2;PMS_P1;PMS_P2;Temp;Humidity;BMP_temperature;BMP_pressure;BME280_temperature;BME280_humidity;BME280_pressure;Samples;Min_cycle;Max_cycle;Signal;HPM_P1;HPM_P2
2022/04/21 00:02:35;;;;;;;21.58;11.02;;;;;;;3.81;87.50;100151.34;5587824;31;33334;-64
2022/04/21 00:05:38;;;;;;;15.63;10.45;;;;;;;3.77;87.66;100146.47;5587924;31;32613;-64
2022/04/21 00:08:41;;;;;;;21.05;10.95;;;;;;;3.72;88.39;100152.13;5588859;31;34514;-64
2022/04/21 00:11:44;;;;;;;18.75;11.12;;;;;;;3.68;88.16;100147.25;5587775;31;33534;-64
2022/04/21 00:14:46;;;;;;;18.62;11.27;;;;;;;3.66;89.18;100154.41;5587409;31;33322;-64
2022/04/21 00:17:50;;;;;;;15.40;10.40;;;;;;;3.65;89.38;100145.72;5587702;31;33981;-64
2022/04/21 00:20:52;;;;;;;19.30;10.75;;;;;;;3.60;90.51;100147.91;5588589;31;34103;-64
2022/04/21 00:23:55;;;;;;;18.02;10.77;;;;;;;3.57;90.24;100144.69;5588344;31;34029;-64
2022/04/21 00:27:00;;;;;;;20.42;11.18;;;;;;;3.50;90.51;100134.72;5587489;31;33976;-64
2022/04/21 00:30:06;;;;;;;19.12;12.23;;;;;;;3.48;91.64;100141.06;5587993;31;34088;-65
2022/04/21 00:33:09;;;;;;;16.42;11.23;;;;;;;3.48;90.88;100136.66;5588240;31;35366;-64
2022/04/21 00:36:12;;;;;;;19.65;11.25;;;;;;;3.58;89.56;100136.72;5587481;31;33268;-64
2022/04/21 00:39:14;;;;;;;18.20;11.77;;;;;;;3.51;89.30;100138.19;5588063;31;34060;-64
2022/04/21 00:42:17;;;;;;;18.00;11.73;;;;;;;3.53;88.66;100132.81;5587223;31;32684;-64
2022/04/21 00:45:20;;;;;;;18.27;10.88;;;;;;;3.48;89.43;100143.69;5588065;31;33894;-63
2022/04/21 00:48:23;;;;;;;16.27;10.90;;;;;;;3.42;88.80;100142.41;5587936;31;33898;-64
2022/04/21 00:51:26;;;;;;;18.05;10.63;;;;;;;3.39;88.33;100141.81;5588942;31;33890;-64
2022/04/21 00:54:33;;;;;;;15.55;10.43;;;;;;;3.42;88.97;100144.19;5590640;31;34626;-64
2022/04/21 00:57:38;;;;;;;19.77;11.95;;;;;;;3.35;89.16;100136.00;5590685;31;34044;-64
2022/04/21 01:00:41;;;;;;;16.80;10.98;;;;;;;3.28;89.62;100147.12;5590650;31;33960;-64
2022/04/21 01:03:43;;;;;;;16.67;11.25;;;;;;;3.25;89.93;100144.75;5590446;31;34278;-64
2022/04/21 01:06:46;;;;;;;18.37;11.40;;;;;;;3.33;90.70;100147.59;5590607;31;33989;-64
2022/04/21 01:09:49;;;;;;;22.05;11.85;;;;;;;3.29;90.68;100141.75;5589449;31;32649;-64
2022/04/21 01:12:52;;;;;;;20.33;12.10;;;;;;;3.21;90.96;100140.72;5590513;31;33888;-64
2022/04/21 01:15:54;;;;;;;18.37;11.77;;;;;;;3.18;91.99;100139.19;5590406;31;34118;-64
2022/04/21 01:18:57;;;;;;;19.12;12.02;;;;;;;3.13;92.89;100135.28;5590508;31;34675;-64
2022/04/21 01:22:00;;;;;;;18.48;12.13;;;;;;;3.12;93.18;100138.84;5590430;31;33934;-64
2022/04/21 01:25:03;;;;;;;17.62;12.00;;;;;;;3.11;93.75;100140.66;5590847;31;34483;-64
2022/04/21 01:28:08;;;;;;;19.20;12.73;;;;;;;3.08;94.14;100132.22;5590268;31;34716;-64
2022/04/21 01:31:11;;;;;;;17.87;11.40;;;;;;;3.08;94.84;100135.66;5590172;31;33909;-64
2022/04/21 01:34:14;;;;;;;19.50;13.00;;;;;;;3.06;95.47;100135.78;5589276;31;34765;-64
2022/04/21 01:43:59;;;;;;;21.20;12.18;;;;;;;2.99;96.56;100132.03;5589341;31;33307;-64
2022/04/21 01:47:02;;;;;;;18.08;11.98;;;;;;;2.99;97.67;100133.81;5590167;31;34586;-64
2022/04/21 01:50:07;;;;;;;19.12;11.88;;;;;;;3.02;98.04;100128.31;5590182;31;33929;-64
2022/04/21 01:53:10;;;;;;;19.25;12.20;;;;;;;3.01;97.80;100127.47;5590048;31;33954;-64
2022/04/21 01:56:12;;;;;;;19.95;12.48;;;;;;;3.01;97.38;100124.84;5589368;31;33948;-64
2022/04/21 01:59:15;;;;;;;18.10;11.88;;;;;;;3.00;97.04;100123.19;5589354;31;33095;-64
2022/04/21 02:02:18;;;;;;;18.42;11.93;;;;;;;2.91;97.38;100120.47;5588661;31;32838;-64
2022/04/21 02:05:21;;;;;;;17.58;11.80;;;;;;;2.84;97.44;100116.72;5589958;31;35546;-65
2022/04/21 02:08:27;;;;;;;17.45;11.65;;;;;;;2.79;97.44;100106.59;5589991;31;34564;-64
2022/04/21 02:11:29;;;;;;;16.40;11.85;;;;;;;2.81;97.82;100117.78;5589916;31;34747;-65
2022/04/21 02:14:33;;;;;;;19.48;12.37;;;;;;;2.76;99.86;100116.50;5589915;31;35200;-67
2022/04/21 02:17:36;;;;;;;16.75;11.73;;;;;;;2.74;100.00;100115.78;5589827;31;34519;-64
2022/04/21 02:20:39;;;;;;;17.35;12.13;;;;;;;2.82;99.79;100114.22;5589118;31;34036;-64
2022/04/21 02:23:42;;;;;;;18.42;12.07;;;;;;;2.77;100.00;100105.06;5589151;31;32463;-63
2022/04/21 02:26:45;;;;;;;20.17;12.50;;;;;;;2.77;100.00;100105.06;5589753;31;34081;-64
2022/04/21 02:29:48;;;;;;;26.75;13.35;;;;;;;2.81;100.00;100106.50;5589737;31;35215;-64
2022/04/21 02:32:51;;;;;;;17.77;11.60;;;;;;;2.69;100.00;100108.31;5580345;31;34611;-64
2022/04/21 02:35:53;;;;;;;19.42;12.75;;;;;;;2.62;100.00;100102.72;5589536;31;35062;-64
2022/04/21 02:38:56;;;;;;;20.48;12.63;;;;;;;2.56;100.00;100112.88;5575875;31;33604;-64
2022/04/21 02:42:00;;;;;;;19.80;13.23;;;;;;;2.55;100.00;100113.84;5589656;31;34555;-63
2022/04/21 02:45:04;;;;;;;20.58;12.90;;;;;;;2.51;100.00;100115.88;5589598;31;34033;-63
2022/04/21 02:48:09;;;;;;;17.42;11.93;;;;;;;2.43;100.00;100110.41;5575904;31;35259;-63
2022/04/21 02:51:11;;;;;;;21.50;13.75;;;;;;;2.43;100.00;100113.00;5575723;31;33957;-63
2022/04/21 02:57:37;;;;;;;21.33;13.70;;;;;;;2.41;100.00;100111.50;5575452;31;32906;-63
2022/04/21 03:00:40;;;;;;;21.05;13.18;;;;;;;2.35;100.00;100111.97;5576168;31;34345;-63
2022/04/21 03:03:43;;;;;;;19.30;12.75;;;;;;;2.31;100.00;100121.03;5589486;31;34153;-63
2022/04/21 03:06:47;;;;;;;22.15;12.98;;;;;;;2.29;100.00;100112.44;5589345;31;34774;-63
2022/04/21 03:09:50;;;;;;;20.48;13.70;;;;;;;2.35;100.00;100115.41;5575426;31;33391;-63
2022/04/21 03:12:53;;;;;;;21.25;13.13;;;;;;;2.28;100.00;100108.16;5589396;31;34010;-62
2022/04/21 03:15:56;;;;;;;21.30;13.85;;;;;;;2.23;100.00;100098.06;5589427;31;33914;-63
2022/04/21 03:18:58;;;;;;;20.62;13.65;;;;;;;2.18;100.00;100103.66;5589295;31;34725;-63
2022/04/21 03:25:26;;;;;;;20.40;13.45;;;;;;;2.11;100.00;100101.66;5589312;31;33845;-62
2022/04/21 03:28:28;;;;;;;21.67;13.50;;;;;;;2.19;100.00;100107.09;5589543;31;34040;-63
2022/04/21 03:31:31;;;;;;;21.37;13.07;;;;;;;2.16;100.00;100108.19;5588971;31;34690;-64
2022/04/21 03:34:34;;;;;;;21.83;13.48;;;;;;;2.16;100.00;100115.22;5589160;31;33862;-64
2022/04/21 03:37:36;;;;;;;20.75;13.15;;;;;;;2.12;100.00;100108.56;5589060;31;34349;-63
2022/04/21 03:40:40;;;;;;;22.33;13.52;;;;;;;2.16;100.00;100112.59;5589066;31;33954;-64
2022/04/21 03:43:43;;;;;;;21.05;12.85;;;;;;;2.15;100.00;100108.31;5575265;31;32857;-63
2022/04/21 03:46:46;;;;;;;23.25;12.60;;;;;;;2.10;100.00;100110.44;5574794;31;33677;-64
2022/04/21 03:49:50;;;;;;;20.55;12.80;;;;;;;2.10;100.00;100106.06;5575139;31;33323;-64
2022/04/21 03:52:52;;;;;;;19.98;12.77;;;;;;;2.11;100.00;100115.56;5575233;31;32579;-64
2022/04/21 03:55:55;;;;;;;18.90;12.00;;;;;;;2.06;100.00;100117.72;5574867;31;33154;-64
2022/04/21 03:58:58;;;;;;;20.02;13.25;;;;;;;2.09;100.00;100120.09;5589115;31;34377;-64
2022/04/21 04:02:04;;;;;;;19.42;11.95;;;;;;;2.11;100.00;100119.97;5588871;31;34278;-64
2022/04/21 04:05:07;;;;;;;22.98;13.25;;;;;;;2.12;100.00;100121.66;5574966;31;33887;-64
2022/04/21 04:11:31;;;;;;;18.95;12.85;;;;;;;2.14;100.00;100125.78;5588552;31;34639;-65
2022/04/21 04:14:34;;;;;;;17.77;12.63;;;;;;;2.33;100.00;100127.78;5588427;31;35287;-65
2022/04/21 04:17:37;;;;;;;18.90;13.13;;;;;;;2.60;100.00;100130.84;5562054;31;33963;-64
2022/04/21 04:20:39;;;;;;;18.23;13.00;;;;;;;2.49;100.00;100128.25;5588437;31;34034;-64
2022/04/21 04:23:42;;;;;;;16.77;11.75;;;;;;;2.39;100.00;100131.72;5588515;31;34150;-64
2022/04/21 04:26:45;;;;;;;19.00;12.37;;;;;;;2.37;100.00;100123.97;5575550;31;34435;-64
2022/04/21 04:29:48;;;;;;;18.75;12.90;;;;;;;2.46;100.00;100122.44;5577038;31;34123;-64
2022/04/21 04:32:50;;;;;;;18.98;12.40;;;;;;;2.55;100.00;100132.16;5590851;31;33964;-64
2022/04/21 04:35:53;;;;;;;19.98;13.13;;;;;;;2.67;100.00;100132.94;5591166;31;34087;-64
2022/04/21 04:38:56;;;;;;;23.05;13.23;;;;;;;2.88;99.65;100136.47;5564083;31;33461;-64
2022/04/21 04:42:17;;;;;;;18.62;12.37;;;;;;;3.09;98.36;100142.56;5590863;31;34615;-64
2022/04/21 04:48:42;;;;;;;19.62;11.48;;;;;;;3.38;96.31;100133.13;5576551;31;33547;-65
2022/04/21 04:51:44;;;;;;;19.98;12.30;;;;;;;3.63;94.60;100131.09;5576855;31;33467;-65
2022/04/21 04:54:47;;;;;;;21.10;12.00;;;;;;;3.64;93.60;100130.09;5591041;31;33996;-65
2022/04/21 04:57:50;;;;;;;18.25;11.52;;;;;;;3.79;92.58;100140.12;5590550;31;33394;-64
2022/04/21 05:00:53;;;;;;;19.15;11.23;;;;;;;3.84;92.00;100135.31;5576374;31;36637;-65
2022/04/21 05:04:06;;;;;;;19.48;12.07;;;;;;;3.95;90.89;100139.66;5590497;31;33547;-64
2022/04/21 05:07:10;;;;;;;23.70;13.52;;;;;;;4.14;91.08;100150.25;5590463;31;34090;-64
2022/04/21 05:10:17;;;;;;;23.45;13.88;;;;;;;4.34;91.42;100148.50;5576627;31;33378;-64
2022/04/21 05:13:19;;;;;;;24.23;15.52;;;;;;;4.50;92.54;100154.09;5590167;31;34595;-66
2022/04/21 05:16:22;;;;;;;25.52;15.55;;;;;;;4.63;90.18;100148.59;5590187;31;33975;-64
2022/04/21 05:19:25;;;;;;;30.15;15.48;;;;;;;4.68;90.56;100141.97;5590214;31;33973;-64
2022/04/21 05:22:37;;;;;;;29.87;16.20;;;;;;;4.77;89.37;100149.03;5576720;31;34296;-65
2022/04/21 05:25:40;;;;;;;29.08;16.92;;;;;;;5.07;90.57;100142.81;5575954;31;32454;-65
2022/04/21 05:28:44;;;;;;;26.30;14.95;;;;;;;5.16;89.17;100152.50;5589642;31;33960;-65
2022/04/21 05:32:01;;;;;;;31.67;17.05;;;;;;;5.34;88.90;100147.38;5575722;31;33125;-65
2022/04/21 05:35:04;;;;;;;31.77;17.42;;;;;;;5.48;87.93;100146.09;5576196;31;34584;-65
2022/04/21 05:38:08;;;;;;;33.33;17.33;;;;;;;5.66;87.23;100154.94;5589019;31;34036;-65
2022/04/21 05:41:13;;;;;;;34.28;17.23;;;;;;;5.81;86.64;100153.50;5575632;31;32814;-65
2022/04/21 05:44:16;;;;;;;32.17;18.02;;;;;;;5.97;84.52;100155.56;5575757;31;33586;-65
2022/04/21 05:47:20;;;;;;;35.30;18.73;;;;;;;6.15;84.18;100145.94;5575723;31;32809;-64
2022/04/21 05:50:23;;;;;;;34.92;19.27;;;;;;;6.26;83.80;100142.28;5575413;31;32576;-65
2022/04/21 05:53:27;;;;;;;33.80;19.17;;;;;;;6.32;82.12;100141.72;5562695;31;32944;-65
2022/04/21 05:56:30;;;;;;;36.97;19.25;;;;;;;6.48;80.71;100136.66;5589334;31;34511;-66
2022/04/21 05:59:32;;;;;;;37.60;19.17;;;;;;;6.58;81.46;100140.06;5576039;31;32568;-65
2022/04/21 06:02:37;;;;;;;38.55;20.50;;;;;;;6.68;80.67;100135.53;5575899;31;32384;-65
2022/04/21 06:05:40;;;;;;;41.95;20.67;;;;;;;6.89;79.99;100143.16;5563112;31;32715;-65
2022/04/21 06:08:43;;;;;;;40.15;21.65;;;;;;;6.99;78.77;100143.91;5575734;31;33385;-65
2022/04/21 06:11:49;;;;;;;39.45;21.33;;;;;;;7.12;78.07;100135.63;5576146;31;34399;-65
2022/04/21 06:14:52;;;;;;;34.05;20.25;;;;;;;7.25;76.57;100138.72;5589514;31;34028;-64
2022/04/21 06:17:55;;;;;;;32.72;19.87;;;;;;;7.46;75.85;100146.28;5575575;31;32663;-64
2022/04/21 06:20:57;;;;;;;42.95;20.37;;;;;;;7.39;74.68;100138.16;5575657;31;32730;-66
2022/04/21 06:24:00;;;;;;;40.05;20.80;;;;;;;7.69;75.77;100137.75;5589266;31;34686;-65
2022/04/21 06:27:03;;;;;;;38.38;20.35;;;;;;;7.72;73.57;100134.78;5575742;31;32592;-65
2022/04/21 06:30:07;;;;;;;44.63;19.95;;;;;;;7.84;72.39;100136.16;5575321;31;32783;-65
2022/04/21 06:33:09;;;;;;;43.92;19.33;;;;;;;8.07;72.70;100128.53;5562864;31;32716;-64
2022/04/21 06:36:12;;;;;;;36.40;20.77;;;;;;;8.27;72.00;100135.25;5575392;31;34639;-64
2022/04/21 06:39:14;;;;;;;40.67;19.40;;;;;;;8.64;70.89;100134.91;5562181;31;33563;-65
2022/04/21 06:42:17;;;;;;;32.50;19.08;;;;;;;8.89;68.85;100127.84;5575212;31;33565;-65
2022/04/21 06:48:45;;;;;;;39.35;20.00;;;;;;;9.56;65.63;100133.81;5552701;31;34525;-65
2022/04/21 06:51:48;;;;;;;32.17;18.15;;;;;;;9.83;65.68;100136.09;5575636;31;32639;-65
2022/04/21 06:54:51;;;;;;;31.42;17.70;;;;;;;10.45;64.35;100123.84;5575622;31;32400;-65
2022/04/21 06:57:54;;;;;;;34.85;18.08;;;;;;;11.58;60.12;100124.00;5589283;31;34035;-64
2022/04/21 07:00:56;;;;;;;31.75;16.55;;;;;;;12.15;55.53;100124.28;5562573;31;33290;-65
2022/04/21 07:03:59;;;;;;;28.27;17.00;;;;;;;13.20;54.46;100125.53;5575278;31;33589;-65
2022/04/21 07:07:02;;;;;;;28.05;16.27;;;;;;;13.61;51.40;100120.31;5589141;31;33992;-65
2022/04/21 07:10:06;;;;;;;22.37;14.95;;;;;;;14.30;49.03;100121.16;5574967;31;33151;-65
2022/04/21 07:13:10;;;;;;;22.98;15.25;;;;;;;13.41;48.83;100114.00;5575555;31;33550;-65
2022/04/21 07:16:12;;;;;;;17.20;12.25;;;;;;;15.07;46.14;100118.16;5589266;31;34322;-65
2022/04/21 07:19:15;;;;;;;23.67;12.63;;;;;;;15.79;43.71;100125.41;5575137;31;32587;-66
2022/04/21 07:22:22;;;;;;;19.00;12.57;;;;;;;15.85;42.27;100121.91;5589157;31;34352;-67
2022/04/21 07:25:25;;;;;;;22.55;12.10;;;;;;;14.74;44.48;100115.41;5575500;31;32751;-66
2022/04/21 07:28:27;;;;;;;20.90;12.82;;;;;;;15.69;43.48;100125.00;5589055;31;34083;-67
2022/04/21 07:31:31;;;;;;;22.62;12.55;;;;;;;16.49;41.68;100127.28;5588881;31;34637;-66
2022/04/21 07:34:34;;;;;;;17.70;12.85;;;;;;;16.35;41.81;100120.34;5575267;31;32541;-67
2022/04/21 07:37:39;;;;;;;18.67;12.52;;;;;;;18.02;37.80;100112.63;5574655;31;32800;-66
2022/04/21 07:40:41;;;;;;;20.85;12.07;;;;;;;18.03;37.74;100106.22;5575197;31;32479;-67
2022/04/21 07:43:44;;;;;;;16.92;10.43;;;;;;;18.70;36.87;100099.03;5588641;31;34364;-67
2022/04/21 07:46:47;;;;;;;15.95;10.02;;;;;;;19.54;33.05;100108.75;5575165;31;34086;-66
2022/04/21 07:49:50;;;;;;;19.70;9.38;;;;;;;18.53;34.00;100104.22;5575123;31;32636;-67
2022/04/21 07:56:14;;;;;;;10.70;7.60;;;;;;;17.06;38.02;100103.31;5574720;31;32348;-67
2022/04/21 07:59:17;;;;;;;8.73;6.22;;;;;;;18.21;35.35;100103.53;5574740;31;32369;-68
2022/04/21 08:02:20;;;;;;;9.20;6.28;;;;;;;18.22;32.49;100101.66;5573580;31;32630;-68
2022/04/21 08:05:22;;;;;;;10.57;6.20;;;;;;;20.14;31.73;100095.06;5588561;31;34514;-67
2022/04/21 08:08:25;;;;;;;8.90;5.70;;;;;;;18.54;33.14;100092.41;5574697;31;34123;-68
2022/04/21 08:11:28;;;;;;;8.70;6.15;;;;;;;20.92;28.46;100092.56;5574833;31;32358;-68
2022/04/21 08:14:30;;;;;;;9.00;6.47;;;;;;;20.81;27.72;100086.19;5574219;31;32901;-69
2022/04/21 08:17:36;;;;;;;6.68;4.32;;;;;;;21.05;29.66;100081.50;5588325;31;34255;-67
2022/04/21 08:20:39;;;;;;;6.72;4.03;;;;;;;19.12;29.91;100077.56;5574417;31;34023;-68
2022/04/21 08:23:42;;;;;;;7.18;4.22;;;;;;;18.94;31.43;100090.00;5588272;31;33979;-67
2022/04/21 08:33:47;;;;;;;7.45;4.85;;;;;;;20.25;28.61;100080.72;5574332;31;33224;-67
2022/04/21 08:36:50;;;;;;;10.57;6.15;;;;;;;20.73;27.17;100075.78;5573680;31;33969;-68
2022/04/21 08:39:52;;;;;;;8.57;6.07;;;;;;;19.48;30.51;100077.41;5573673;31;34192;-66
2022/04/21 08:42:56;;;;;;;9.40;6.65;;;;;;;18.16;32.03;100073.03;5574047;31;32666;-67
2022/04/21 08:45:58;;;;;;;8.30;5.65;;;;;;;19.71;29.62;100080.09;5573075;31;34031;-67
2022/04/21 08:49:02;;;;;;;9.82;5.80;;;;;;;19.12;30.09;100077.56;5573956;31;34682;-67
2022/04/21 08:52:06;;;;;;;7.15;5.28;;;;;;;19.95;29.01;100080.87;5587503;31;34048;-67
2022/04/21 08:55:10;;;;;;;8.95;4.70;;;;;;;20.55;28.65;100069.75;5573519;31;32557;-67
2022/04/21 08:58:13;;;;;;;5.85;3.87;;;;;;;21.14;26.89;100081.94;5587430;31;34908;-67
2022/04/21 09:01:17;;;;;;;6.32;4.15;;;;;;;21.35;25.58;100080.41;5560556;31;32357;-67
2022/04/21 09:04:21;;;;;;;5.28;3.70;;;;;;;19.98;28.10;100085.00;5573013;31;33555;-67
2022/04/21 09:07:24;;;;;;;3.87;2.90;;;;;;;21.31;26.81;100088.16;5587487;31;34585;-67
2022/04/21 09:10:29;;;;;;;4.47;2.70;;;;;;;21.80;23.27;100091.06;5573254;31;33565;-68
2022/04/21 09:13:44;;;;;;;2.75;2.33;;;;;;;22.75;22.62;100078.00;5589295;31;33899;-67
2022/04/21 09:16:47;;;;;;;3.78;2.40;;;;;;;21.87;24.95;100078.22;5589945;31;34853;-66
2022/04/21 09:20:00;;;;;;;2.62;2.37;;;;;;;21.72;23.72;100083.41;5562434;31;33108;-67
2022/04/21 09:23:10;;;;;;;3.25;2.70;;;;;;;22.97;22.76;100083.38;5575857;31;33208;-67
2022/04/21 09:26:15;;;;;;;4.03;2.60;;;;;;;22.20;23.59;100082.75;5576049;31;32660;-66
2022/04/21 09:29:30;;;;;;;2.65;2.10;;;;;;;23.70;21.60;100088.06;5589922;31;34328;-67
2022/04/21 09:32:34;;;;;;;2.40;2.15;;;;;;;21.29;24.71;100084.91;5575281;31;35232;-66
2022/04/21 09:35:38;;;;;;;3.10;2.50;;;;;;;21.67;24.51;100076.03;5589660;31;33794;-66
2022/04/21 09:38:41;;;;;;;3.33;2.50;;;;;;;21.45;24.46;100088.63;5576307;31;32427;-66
2022/04/21 09:41:46;;;;;;;4.28;2.90;;;;;;;21.62;24.55;100086.75;5589646;31;34093;-66
2022/04/21 09:48:23;;;;;;;3.60;2.78;;;;;;;21.43;25.78;100075.41;5590393;31;34235;-65
2022/04/21 09:51:28;;;;;;;3.20;2.75;;;;;;;18.71;28.35;100078.34;5576551;31;33316;-67
2022/04/21 09:54:31;;;;;;;3.22;2.60;;;;;;;19.59;28.59;100078.47;5575808;31;32831;-68
2022/04/21 09:57:35;;;;;;;4.05;2.90;;;;;;;19.03;28.82;100080.56;5575119;31;32452;-66
2022/04/21 10:00:38;;;;;;;5.47;3.05;;;;;;;18.39;30.61;100075.03;5576128;31;32795;-67
2022/04/21 10:03:43;;;;;;;6.00;3.20;;;;;;;17.93;31.86;100070.19;5575850;31;32470;-66
2022/04/21 10:06:47;;;;;;;5.50;3.72;;;;;;;17.62;33.82;100069.25;5589732;31;34043;-66
2022/04/21 10:09:50;;;;;;;4.65;3.67;;;;;;;15.90;34.57;100065.09;5575466;31;34164;-65
2022/04/21 10:12:55;;;;;;;5.03;3.60;;;;;;;15.83;34.71;100064.31;5575683;31;32432;-67
2022/04/21 10:15:58;;;;;;;5.82;3.58;;;;;;;15.98;36.49;100057.66;5575888;31;33132;-66
2022/04/21 10:19:02;;;;;;;5.35;3.40;;;;;;;16.21;34.37;100057.19;5575800;31;33933;-66
2022/04/21 10:22:13;;;;;;;5.15;3.45;;;;;;;15.99;35.38;100056.63;5562918;31;32338;-66
2022/04/21 10:25:16;;;;;;;3.90;3.30;;;;;;;15.39;35.31;100060.44;5575040;31;33505;-66
2022/04/21 10:28:46;;;;;;;4.72;2.80;;;;;;;15.35;34.80;100064.53;5570617;31;156337;-65
2022/04/21 10:31:54;;;;;;;;;;;;;;;15.53;34.49;100066.63;5575824;31;33336;-65
2022/04/21 10:34:57;;;;;;;5.62;3.15;;;;;;;15.39;34.93;100052.41;5575167;31;33148;-66
2022/04/21 10:38:12;;;;;;;3.80;2.95;;;;;;;17.15;33.49;100038.50;5589259;31;35302;-66
2022/04/21 10:41:34;;;;;;;3.00;2.53;;;;;;;19.40;29.17;100043.56;5575134;31;32606;-65
2022/04/21 10:44:42;;;;;;;5.55;2.83;;;;;;;20.23;26.07;100037.06;5561985;31;32578;-65
2022/04/21 10:48:05;;;;;;;4.15;2.40;;;;;;;22.62;23.76;100042.41;5575428;31;34555;-65
2022/04/21 10:51:08;;;;;;;3.00;2.25;;;;;;;20.34;25.70;100044.28;5575341;31;32937;-65
2022/04/21 10:57:33;;;;;;;7.70;4.03;;;;;;;21.85;23.16;100018.22;5575251;31;34272;-65
2022/04/21 11:00:36;;;;;;;3.95;2.80;;;;;;;20.17;25.83;100021.84;5575520;31;34314;-66
2022/04/21 11:03:40;;;;;;;3.72;2.60;;;;;;;22.21;24.49;100022.22;5589270;31;34604;-66
2022/04/21 11:07:05;;;;;;;2.92;2.60;;;;;;;22.75;22.49;100023.13;5575547;31;32912;-67
2022/04/21 11:10:28;;;;;;;3.30;2.45;;;;;;;25.22;21.50;100022.69;5575650;31;32368;-66
2022/04/21 11:13:50;;;;;;;3.40;2.53;;;;;;;24.62;21.94;100018.81;5589002;31;33947;-67
2022/04/21 11:16:53;;;;;;;4.07;2.37;;;;;;;22.79;21.76;100019.63;5575558;31;32577;-66
2022/04/21 11:19:56;;;;;;;5.72;3.25;;;;;;;22.59;21.93;100024.81;5562518;31;33610;-67
2022/04/21 11:22:59;;;;;;;3.05;2.05;;;;;;;25.93;19.49;100007.91;5574577;31;34234;-68
2022/04/21 11:26:07;;;;;;;4.22;2.80;;;;;;;26.02;19.02;100004.59;5588887;31;33883;-68
2022/04/21 11:29:09;;;;;;;4.65;2.83;;;;;;;27.21;19.03;100001.41;5589022;31;34476;-67
2022/04/21 11:32:17;;;;;;;4.62;2.90;;;;;;;25.63;19.90;100001.72;5574947;31;33341;-67
2022/04/21 11:35:22;;;;;;;5.70;2.40;;;;;;;23.31;22.36;100000.84;5573558;31;33342;-67
2022/04/21 11:38:27;;;;;;;3.72;2.87;;;;;;;25.66;19.21;99998.50;5575122;31;32476;-67
2022/04/21 11:41:30;;;;;;;3.72;2.62;;;;;;;26.10;18.70;100004.81;5561880;31;33432;-65
2022/04/21 11:44:33;;;;;;;4.00;2.60;;;;;;;25.72;18.62;100006.31;5589113;31;34677;-67
2022/04/21 11:47:38;;;;;;;4.03;2.70;;;;;;;25.46;18.77;99991.16;5574898;31;33534;-67
2022/04/21 11:50:46;;;;;;;3.20;2.50;;;;;;;26.06;19.00;99994.78;5588981;31;33884;-67
2022/04/21 11:53:50;;;;;;;3.47;2.65;;;;;;;25.57;19.17;99991.97;5562212;31;32941;-67
2022/04/21 11:56:53;;;;;;;3.80;2.53;;;;;;;25.94;20.20;99998.66;5574790;31;32864;-67
2022/04/21 12:00:01;;;;;;;3.75;3.00;;;;;;;23.88;21.24;99981.16;5574589;31;32325;-66
2022/04/21 12:06:37;;;;;;;4.40;3.35;;;;;;;24.30;21.65;99980.25;5588748;31;33885;-67
2022/04/21 12:09:40;;;;;;;6.68;3.03;;;;;;;25.99;19.99;99983.41;5588787;31;34122;-67
2022/04/21 12:12:44;;;;;;;3.78;2.83;;;;;;;27.60;19.21;99976.78;5588330;31;34614;-67
2022/04/21 12:15:51;;;;;;;4.60;2.70;;;;;;;27.69;17.91;99974.25;5588269;31;34068;-67
2022/04/21 12:18:54;;;;;;;4.65;2.70;;;;;;;25.42;19.84;99963.72;5574167;31;32584;-67
2022/04/21 12:22:11;;;;;;;4.87;2.65;;;;;;;25.72;20.91;99964.75;5573903;31;32628;-68
2022/04/21 12:25:14;;;;;;;5.00;2.90;;;;;;;27.60;18.26;99967.78;5587984;31;34575;-68
2022/04/21 12:28:17;;;;;;;7.60;3.40;;;;;;;24.39;20.47;99965.91;5574183;31;32305;-68
2022/04/21 12:31:20;;;;;;;5.85;3.20;;;;;;;24.30;21.13;99961.28;5574061;31;34106;-68
2022/04/21 12:34:28;;;;;;;4.25;3.20;;;;;;;28.25;18.17;99963.47;5574162;31;32464;-68
2022/04/21 12:37:38;;;;;;;8.10;2.97;;;;;;;29.14;17.89;99960.72;5573670;31;33146;-68
2022/04/21 12:40:41;;;;;;;4.70;3.65;;;;;;;27.00;19.15;99958.31;5587738;31;34533;-68
2022/04/21 12:43:44;;;;;;;6.30;3.28;;;;;;;29.54;17.50;99962.69;5587990;31;34086;-68
2022/04/21 12:47:00;;;;;;;5.30;3.30;;;;;;;29.77;16.53;99958.16;5574098;31;32913;-68
2022/04/21 12:50:16;;;;;;;4.70;3.80;;;;;;;29.01;16.64;99961.47;5576225;31;32756;-67
2022/04/21 12:53:26;;;;;;;5.47;3.22;;;;;;;30.27;16.44;99963.66;5576716;31;32523;-68
2022/04/21 12:56:34;;;;;;;4.35;3.28;;;;;;;26.15;20.10;99950.41;5563696;31;33879;-69
2022/04/21 12:59:37;;;;;;;4.32;3.37;;;;;;;24.74;20.58;99969.75;5576480;31;32354;-67
2022/04/21 13:02:40;;;;;;;7.18;3.20;;;;;;;25.57;20.96;99949.31;5576569;31;32997;-68
2022/04/21 13:05:51;;;;;;;5.47;3.60;;;;;;;27.69;18.75;99960.63;5576378;31;33538;-67
2022/04/21 13:08:55;;;;;;;3.87;3.03;;;;;;;23.37;21.78;99953.78;5563848;31;32724;-67
2022/04/21 13:11:58;;;;;;;5.03;3.30;;;;;;;26.27;19.74;99956.37;5563408;31;32435;-68
2022/04/21 13:15:02;;;;;;;4.82;3.50;;;;;;;26.58;20.06;99950.72;5576244;31;34417;-68
2022/04/21 13:18:05;;;;;;;5.18;3.35;;;;;;;27.22;17.79;99951.28;5576168;31;32727;-67
2022/04/21 13:24:30;;;;;;;7.10;3.75;;;;;;;27.32;18.12;99946.81;5576187;31;32854;-68
2022/04/21 13:27:33;;;;;;;3.70;3.03;;;;;;;25.96;19.48;99941.28;5589883;31;34171;-67
2022/04/21 13:30:36;;;;;;;5.82;3.30;;;;;;;23.85;21.56;99941.06;5575869;31;32866;-67
2022/04/21 13:33:39;;;;;;;4.32;3.25;;;;;;;24.90;21.64;99944.25;5576415;31;32484;-67
2022/04/21 13:36:41;;;;;;;4.18;3.20;;;;;;;23.32;22.91;99950.25;5575599;31;32545;-66
2022/04/21 13:39:44;;;;;;;4.62;2.95;;;;;;;23.20;22.56;99955.84;5589629;31;34064;-66
2022/04/21 13:42:47;;;;;;;5.15;2.72;;;;;;;27.02;18.59;99943.31;5576118;31;33141;-67
2022/04/21 13:45:50;;;;;;;6.45;2.75;;;;;;;28.54;17.01;99949.66;5575352;31;33276;-66
2022/04/21 13:48:53;;;;;;;4.03;2.67;;;;;;;29.97;16.69;99949.53;5575754;31;34833;-66
2022/04/21 13:51:56;;;;;;;6.28;3.05;;;;;;;29.12;16.65;99941.88;5575551;31;32756;-67
2022/04/21 13:54:58;;;;;;;5.22;3.28;;;;;;;25.21;20.40;99932.28;5575661;31;33438;-67
2022/04/21 13:58:01;;;;;;;3.33;2.83;;;;;;;25.27;19.97;99942.03;5574579;31;33324;-67
2022/04/21 14:01:04;;;;;;;7.62;3.17;;;;;;;24.78;20.35;99936.38;5575471;31;33338;-67
2022/04/21 14:04:07;;;;;;;6.68;3.15;;;;;;;22.95;22.22;99931.28;5589493;31;34323;-67
2022/04/21 14:07:10;;;;;;;3.45;2.78;;;;;;;23.01;22.58;99930.25;5589156;31;34765;-67
2022/04/21 14:10:13;;;;;;;3.92;3.17;;;;;;;23.00;22.78;99925.09;5588821;31;34001;-67
2022/04/21 14:13:17;;;;;;;3.20;2.62;;;;;;;21.44;24.32;99925.09;5575384;31;32326;-66
2022/04/21 14:16:20;;;;;;;5.12;2.55;;;;;;;23.68;21.53;99927.69;5575292;31;32671;-67
2022/04/21 14:19:33;;;;;;;5.62;2.50;;;;;;;22.74;23.78;99927.66;5589180;31;34085;-66
2022/04/21 14:22:36;;;;;;;3.85;2.45;;;;;;;22.08;23.36;99924.28;5575468;31;32426;-66
2022/04/21 14:25:42;;;;;;;4.43;2.37;;;;;;;23.82;21.71;99919.88;5589079;31;33973;-66
2022/04/21 14:28:46;;;;;;;3.50;2.90;;;;;;;24.08;21.33;99918.09;5574703;31;33471;-66
2022/04/21 14:31:48;;;;;;;4.20;2.70;;;;;;;19.97;25.98;99925.31;5574871;31;33014;-67
2022/04/21 14:34:51;;;;;;;6.10;3.70;;;;;;;21.17;24.75;99916.87;5575595;31;32596;-66
2022/04/21 14:44:42;;;;;;;4.43;3.00;;;;;;;18.76;29.13;99925.31;5574876;31;32484;-65
2022/04/21 14:47:46;;;;;;;5.80;2.92;;;;;;;18.03;30.55;99929.06;5574566;31;33237;-65
2022/04/21 14:50:49;;;;;;;3.90;2.72;;;;;;;18.42;29.81;99933.03;5574717;31;34454;-65
2022/04/21 14:53:52;;;;;;;4.50;2.90;;;;;;;17.92;31.11;99929.00;5561821;31;33023;-65
2022/04/21 14:56:54;;;;;;;4.93;2.92;;;;;;;17.82;30.20;99918.78;5574591;31;32844;-66
2022/04/21 14:59:57;;;;;;;5.20;3.03;;;;;;;17.31;31.15;99916.47;5574846;31;32676;-65
2022/04/21 15:03:00;;;;;;;5.32;3.55;;;;;;;17.85;32.06;99929.09;5574403;31;33477;-65
2022/04/21 15:06:06;;;;;;;4.28;3.20;;;;;;;17.19;31.50;99928.97;5573844;31;34158;-66
2022/04/21 15:09:09;;;;;;;3.58;2.95;;;;;;;17.31;31.41;99919.16;5574223;31;33354;-65